Flight EZE12W

  • Submitted By: Dave Hardy
  • Departure Airport: Humberside International (EGNJ)
  • Arrival Airport: Aberdeen / Dyce (EGPD)
  • Aircraft: JS41 (G-MAJA)
  • Flight Time: 0.55
  • Date Submitted: 05/16/2009
  • Status: Accepted
Flight Details
Gross Revenue:
(37 load / £ 0.00 per unit
£ 0.00
Fuel Cost:
(1311 fuel used @ 0 / unit)
£ 0.00

Flight Details

  • VATAWARE Link: -

Additional Log Information:

View Log

[2009/05/16 10:28:00]
Flight IATA:EZE12W
Pilot Number:EZE0001
Company ICAO:EZE
Aircraft Type:JS41
PAX:37
Aircraft Registration:JS41
Departing Airport: EGNJ
Destination Airport: EGPD
Online: VATSIM
Route:UMBEL DCT ALASO P18 BALID
Flight Level:18000
10:28 Zero fuel Weight: 17981 Lbs, Fuel Weight: 5813 Lbs
10:28 VATSIM:EGNJ 160950Z 17013KT 9999 SCT015 BKN025 13/10 Q1002
10:28 VATSIM:EGPD 160950Z 10012KT 4000 RA BKN002 08/08 Q1001 TEMPO 5000 BKN005
10:34 Parking Brakes off
10:34 Com1 Freq=124.90
10:39 VR= 132 Knots
10:39 V2= 143 Knots
10:39 Take-off
10:39 Take off Weight: 23745 Lbs
10:39 Wind: 175 @ 012 Knots Heading: 199
10:39 POS N53 34 00 W000 21 21
10:39 N11 36 N12 36
10:39 Gear Up: 145 Knots
10:39 Flaps: at 145 Knots
10:41 Com1 Freq=123.90
10:41 Com1 Freq=122.90
10:41 Com1 Freq=122.80
10:50 TOC
10:50 Fuel Weight: 5334 Lb
10:54 Wind:180@039 Knots Heading: 334 Ground Speed: 338 Knots Altitude 17946 ft
10:58 Flaps: at 241 Knots
11:09 Wind:145@032 Knots Heading: 350 Ground Speed: 335 Knots Altitude 18005 ft
11:16 TOD
11:16 Fuel Weight: 4611 Lb
11:23 Flaps: at 223 Knots
11:24 Wind:125@026 Knots Heading: 007 Ground Speed: 225 Knots Altitude 4530 ft
11:24 Flaps: at 203 Knots
11:24 Gear Down: 200 Knots
11:25 Flaps: at 149 Knots
11:27 TouchDown:Rate -1381 ft/min Speed: 129 Knots
11:27 Flaps: at 31 Knots
11:27 VATSIM:EGPD 161050Z 11009KT 4500 RA OVC001 09/08 Q1001 BECMG BKN003
11:27 Land
11:27 Wind:107@010 Knots
11:27 Heading: 314
11:27 Flight Duration: 00:48
11:27 Landing Weight: 22490 Lbs
11:27 POS N57 12 04 W002 11 53
11:29 Parking brakes on
11:29 Block to Block Duration: 00:55
11:29 Final Fuel: 4501 Lbls
11:29 Spent Fuel: 1311 Lbls
11:29 Flight Length: 231 NM
11:29 TOD Land Length: 45 NM

Route Map